Time;durP1;ratioP1;P1;durP2;ratioP2;P2;SDS_P1;SDS_P2;PMS_P1;PMS_P2;Temp;Humidity;BMP_temperature;BMP_pressure;BME280_temperature;BME280_humidity;BME280_pressure;Samples;Min_cycle;Max_cycle;Signal;HPM_P1;HPM_P2
2023/10/03 00:01:07;0.00;0.00;0.62;0.00;0.00;0.62;7.50;5.37;;;28.60;32.50;;;;;;2268634;61;20375;-66
2023/10/03 00:03:53;0.00;0.00;0.62;0.00;0.00;0.62;6.60;5.30;;;28.60;32.50;;;;;;2268676;61;20375;-65
2023/10/03 00:06:39;0.00;0.00;0.62;0.00;0.00;0.62;8.50;6.17;;;28.60;32.50;;;;;;2268613;61;20516;-65
2023/10/03 00:09:24;0.00;0.00;0.62;0.00;0.00;0.62;8.07;6.43;;;28.60;32.50;;;;;;2268115;61;20478;-66
2023/10/03 00:12:08;0.00;0.00;0.62;0.00;0.00;0.62;7.17;5.63;;;28.60;32.50;;;;;;2268634;61;20930;-65
2023/10/03 00:14:53;0.00;0.00;0.62;0.00;0.00;0.62;7.63;5.53;;;28.60;32.50;;;;;;2268520;61;20907;-65
2023/10/03 00:17:39;0.00;0.00;0.62;0.00;0.00;0.62;6.93;5.77;;;28.60;32.40;;;;;;2268593;61;20367;-67
2023/10/03 00:20:24;0.00;0.00;0.62;0.00;0.00;0.62;8.67;6.03;;;28.60;32.30;;;;;;2269349;55;20799;-65
2023/10/03 00:23:10;0.00;0.00;0.62;0.00;0.00;0.62;8.97;6.20;;;28.60;32.30;;;;;;2268610;61;20367;-66
2023/10/03 00:25:55;0.00;0.00;0.62;0.00;0.00;0.62;8.23;5.80;;;28.60;32.30;;;;;;2268544;61;20367;-66
2023/10/03 00:28:39;0.00;0.00;0.62;0.00;0.00;0.62;8.80;6.30;;;28.60;32.30;;;;;;2268321;61;20410;-65
2023/10/03 00:31:24;0.00;0.00;0.62;0.00;0.00;0.62;7.70;5.57;;;28.50;32.10;;;;;;2268379;61;20510;-69
2023/10/03 00:34:08;0.00;0.00;0.62;0.00;0.00;0.62;6.70;5.20;;;28.60;32.20;;;;;;2265345;61;20917;-66
2023/10/03 00:36:54;0.00;0.00;0.62;0.00;0.00;0.62;7.20;5.50;;;28.50;32.10;;;;;;2268426;61;20359;-65
2023/10/03 00:39:41;0.00;0.00;0.62;0.00;0.00;0.62;8.63;5.40;;;28.50;32.10;;;;;;2268250;61;20394;-66
2023/10/03 00:42:26;0.00;0.00;0.62;0.00;0.00;0.62;6.70;5.30;;;28.50;32.10;;;;;;2268444;61;20938;-66
2023/10/03 00:45:12;0.00;0.00;0.62;0.00;0.00;0.62;9.63;5.60;;;28.50;32.10;;;;;;2268577;61;20930;-66
2023/10/03 00:47:59;0.00;0.00;0.62;0.00;0.00;0.62;7.60;5.43;;;28.50;32.10;;;;;;2265019;61;20757;-69
2023/10/03 00:50:44;0.00;0.00;0.62;0.00;0.00;0.62;8.60;5.93;;;28.50;32.00;;;;;;2268349;61;20804;-65
2023/10/03 00:53:32;0.00;0.00;0.62;0.00;0.00;0.62;8.10;5.63;;;28.50;32.00;;;;;;2265308;61;20430;-66
2023/10/03 00:56:19;0.00;0.00;0.62;0.00;0.00;0.62;8.17;5.80;;;28.50;32.00;;;;;;2265260;61;20360;-65
2023/10/03 00:59:04;0.00;0.00;0.62;0.00;0.00;0.62;9.17;6.07;;;28.50;31.90;;;;;;2267831;61;20363;-66
2023/10/03 01:01:49;0.00;0.00;0.62;0.00;0.00;0.62;10.00;6.50;;;28.50;31.90;;;;;;2268675;61;20391;-66
2023/10/03 01:04:35;0.00;0.00;0.62;0.00;0.00;0.62;10.37;7.10;;;28.50;31.90;;;;;;2265108;61;20363;-68
2023/10/03 01:07:19;0.00;0.00;0.62;0.00;0.00;0.62;7.37;5.63;;;28.50;31.80;;;;;;2268491;61;20371;-67
2023/10/03 01:10:07;0.00;0.00;0.62;0.00;0.00;0.62;9.37;6.50;;;28.50;31.90;;;;;;2268012;61;20839;-67
2023/10/03 01:12:54;0.00;0.00;0.62;0.00;0.00;0.62;8.83;5.80;;;28.50;31.80;;;;;;2268108;61;20995;-65
2023/10/03 01:15:40;0.00;0.00;0.62;0.00;0.00;0.62;9.33;7.03;;;28.50;31.80;;;;;;2268314;61;20371;-66
2023/10/03 01:18:27;0.00;0.00;0.62;0.00;0.00;0.62;8.07;6.83;;;28.50;31.80;;;;;;2267994;61;20902;-66
2023/10/03 01:21:11;0.00;0.00;0.62;0.00;0.00;0.62;8.83;5.23;;;28.50;31.80;;;;;;2267974;61;20473;-66
2023/10/03 01:23:59;0.00;0.00;0.62;0.00;0.00;0.62;8.70;6.20;;;28.50;31.80;;;;;;2268436;61;20425;-64
2023/10/03 01:26:44;0.00;0.00;0.62;0.00;0.00;0.62;7.47;5.90;;;28.50;31.80;;;;;;2268270;61;20367;-66
2023/10/03 01:29:30;0.00;0.00;0.62;0.00;0.00;0.62;8.83;5.90;;;28.50;31.80;;;;;;2267816;61;20445;-66
2023/10/03 01:32:15;0.00;0.00;0.62;0.00;0.00;0.62;9.20;6.93;;;28.50;31.70;;;;;;2268234;61;20387;-63
2023/10/03 01:35:07;0.00;0.00;0.62;0.00;0.00;0.62;8.40;5.97;;;28.50;31.70;;;;;;2261155;61;20406;-65
2023/10/03 01:37:52;0.00;0.00;0.62;0.00;0.00;0.62;7.63;6.07;;;28.50;31.70;;;;;;2267626;61;20399;-65
2023/10/03 01:40:38;0.00;0.00;0.62;0.00;0.00;0.62;8.47;5.90;;;28.50;31.70;;;;;;2267363;57;20379;-64
2023/10/03 01:43:23;0.00;0.00;0.62;0.00;0.00;0.62;8.13;5.97;;;28.50;31.70;;;;;;2264960;61;20367;-65
2023/10/03 01:46:07;0.00;0.00;0.62;0.00;0.00;0.62;9.17;6.70;;;28.50;31.70;;;;;;2268494;61;20366;-64
2023/10/03 01:48:52;0.00;0.00;0.62;0.00;0.00;0.62;8.30;5.93;;;28.50;31.80;;;;;;2267618;61;20363;-65
2023/10/03 01:51:36;0.00;0.00;0.62;0.00;0.00;0.62;8.97;6.20;;;28.40;31.70;;;;;;2265707;61;20407;-66
2023/10/03 01:54:21;0.00;0.00;0.62;0.00;0.00;0.62;8.03;5.73;;;28.40;31.70;;;;;;2264511;61;20395;-66
2023/10/03 01:57:07;0.00;0.00;0.62;0.00;0.00;0.62;7.93;5.50;;;28.40;31.70;;;;;;2264014;61;20363;-66
2023/10/03 01:59:51;0.00;0.00;0.62;0.00;0.00;0.62;8.57;6.00;;;28.40;31.70;;;;;;2260750;61;20363;-67
2023/10/03 02:02:36;0.00;0.00;0.62;0.00;0.00;0.62;8.77;6.30;;;28.40;31.70;;;;;;2261057;61;20376;-64
2023/10/03 02:05:23;0.00;0.00;0.62;0.00;0.00;0.62;8.60;5.70;;;28.40;31.70;;;;;;2264085;61;20359;-65
2023/10/03 02:08:17;0.00;0.00;0.62;0.00;0.00;0.62;8.30;6.20;;;28.40;31.60;;;;;;2261175;61;20410;-66
2023/10/03 02:11:05;0.00;0.00;0.62;0.00;0.00;0.62;7.63;5.60;;;28.40;31.60;;;;;;2264872;61;20782;-66
2023/10/03 02:13:51;0.00;0.00;0.62;0.00;0.00;0.62;6.63;5.60;;;28.40;31.60;;;;;;2265011;61;20451;-66
2023/10/03 02:16:41;0.00;0.00;0.62;0.00;0.00;0.62;9.23;6.10;;;28.40;31.60;;;;;;2261738;61;20407;-64
2023/10/03 02:19:26;0.00;0.00;0.62;0.00;0.00;0.62;7.60;5.63;;;28.40;31.60;;;;;;2258494;61;20380;-66
2023/10/03 02:22:12;0.00;0.00;0.62;0.00;0.00;0.62;10.20;6.47;;;28.40;31.60;;;;;;2264756;61;20929;-66
2023/10/03 02:24:57;0.00;0.00;0.62;0.00;0.00;0.62;8.77;5.93;;;28.40;31.60;;;;;;2261742;61;20368;-66
2023/10/03 02:27:42;0.00;0.00;0.62;0.00;0.00;0.62;9.17;6.20;;;28.40;31.60;;;;;;2264632;61;20356;-65
2023/10/03 02:30:29;0.00;0.00;0.62;0.00;0.00;0.62;8.40;5.87;;;28.40;31.60;;;;;;2261514;61;20391;-66
2023/10/03 02:33:14;0.00;0.00;0.62;0.00;0.00;0.62;9.77;6.50;;;28.40;31.70;;;;;;2261499;61;20923;-65
2023/10/03 02:35:59;0.00;0.00;0.62;0.00;0.00;0.62;8.73;5.60;;;28.40;31.60;;;;;;2261818;61;20415;-69
2023/10/03 02:38:44;0.00;0.00;0.62;0.00;0.00;0.62;8.43;6.40;;;28.40;31.60;;;;;;2262662;61;20514;-66
2023/10/03 02:41:30;0.00;0.00;0.62;0.00;0.00;0.62;9.20;6.20;;;28.40;31.60;;;;;;2265469;61;20438;-65
2023/10/03 02:44:15;0.00;0.00;0.62;0.00;0.00;0.62;8.27;5.50;;;28.40;31.60;;;;;;2269120;61;20884;-67
2023/10/03 02:47:02;0.00;0.00;0.62;0.00;0.00;0.62;6.57;5.40;;;28.40;31.60;;;;;;2269025;61;20879;-63
2023/10/03 02:49:49;0.00;0.00;0.62;0.00;0.00;0.62;8.13;5.57;;;28.40;31.60;;;;;;2268291;61;20387;-70
2023/10/03 02:52:35;0.00;0.00;0.62;0.00;0.00;0.62;10.20;7.30;;;28.40;31.60;;;;;;2262919;61;20395;-65
2023/10/03 02:55:20;0.00;0.00;0.62;0.00;0.00;0.62;10.40;7.00;;;28.40;31.50;;;;;;2268929;61;20354;-66
2023/10/03 02:58:05;0.00;0.00;0.62;0.00;0.00;0.62;9.33;6.03;;;28.30;31.50;;;;;;2268612;61;21139;-65
2023/10/03 03:00:54;0.00;0.00;0.62;0.00;0.00;0.62;9.70;6.27;;;28.30;31.50;;;;;;2265636;61;20382;-65
2023/10/03 03:03:42;0.00;0.00;0.62;0.00;0.00;0.62;10.60;6.50;;;28.30;31.50;;;;;;2265624;61;20978;-66
2023/10/03 03:06:27;0.00;0.00;0.62;0.00;0.00;0.62;7.67;5.80;;;28.30;31.50;;;;;;2265484;61;20510;-65
2023/10/03 03:09:17;0.00;0.00;0.62;0.00;0.00;0.62;8.83;6.30;;;28.30;31.40;;;;;;2268612;61;20444;-66
2023/10/03 03:12:06;0.00;0.00;0.62;0.00;0.00;0.62;7.60;6.50;;;28.30;31.40;;;;;;2265251;61;20379;-68
2023/10/03 03:14:52;0.00;0.00;0.62;0.00;0.00;0.62;9.53;6.47;;;28.30;31.40;;;;;;2265474;61;20895;-66
2023/10/03 03:17:40;0.00;0.00;0.62;0.00;0.00;0.62;8.60;5.73;;;28.30;31.40;;;;;;2268878;61;20437;-66
2023/10/03 03:20:35;0.00;0.00;0.62;0.00;0.00;0.62;9.40;5.90;;;28.30;31.40;;;;;;2265391;61;20927;-66
2023/10/03 03:23:21;0.00;0.00;0.62;0.00;0.00;0.62;12.13;7.07;;;28.30;31.40;;;;;;2268591;61;20395;-65
2023/10/03 03:28:57;0.00;0.00;0.62;0.00;0.00;0.62;8.13;5.90;;;28.30;31.60;;;;;;2268318;61;20450;-64
2023/10/03 03:31:42;0.00;0.00;0.62;0.00;0.00;0.62;9.70;6.77;;;28.30;31.40;;;;;;2268865;61;20375;-65
2023/10/03 03:34:28;0.00;0.00;0.62;0.00;0.00;0.62;8.57;6.33;;;28.30;31.40;;;;;;2268795;61;20363;-64
2023/10/03 03:37:23;0.00;0.00;0.62;0.00;0.00;0.62;8.13;5.90;;;28.30;31.40;;;;;;2265596;61;20367;-64
2023/10/03 03:40:13;0.00;0.00;0.62;0.00;0.00;0.62;8.70;5.93;;;28.30;31.40;;;;;;2267702;61;20367;-65
2023/10/03 03:43:00;0.00;0.00;0.62;0.00;0.00;0.62;9.53;6.50;;;28.30;31.40;;;;;;2268782;61;20418;-67
2023/10/03 03:45:45;0.00;0.00;0.62;0.00;0.00;0.62;8.90;6.60;;;28.30;31.40;;;;;;2268725;61;20367;-67
2023/10/03 03:48:34;0.00;0.00;0.62;0.00;0.00;0.62;9.23;6.40;;;28.30;31.40;;;;;;2268176;61;20879;-67
2023/10/03 03:51:19;0.00;0.00;0.62;0.00;0.00;0.62;8.87;5.77;;;28.30;31.40;;;;;;2268519;61;20387;-66
2023/10/03 03:54:07;0.00;0.00;0.62;0.00;0.00;0.62;11.07;7.20;;;28.30;31.30;;;;;;2265448;61;20939;-65
2023/10/03 03:56:51;0.00;0.00;0.62;0.00;0.00;0.62;8.80;6.43;;;28.30;31.30;;;;;;2268171;61;20367;-65
2023/10/03 03:59:36;0.00;0.00;0.62;0.00;0.00;0.62;8.57;6.07;;;28.30;31.40;;;;;;2268441;61;20426;-65
2023/10/03 04:02:21;0.00;0.00;0.62;0.00;0.00;0.62;10.30;6.70;;;28.30;31.40;;;;;;2268472;61;20478;-65
2023/10/03 04:05:07;0.00;0.00;0.62;0.00;0.00;0.62;9.60;5.90;;;28.20;31.30;;;;;;2268702;61;20367;-65
2023/10/03 04:07:53;0.00;0.00;0.62;0.00;0.00;0.62;8.50;6.33;;;28.20;31.40;;;;;;2268264;61;20362;-67
2023/10/03 04:10:43;0.00;0.00;0.62;0.00;0.00;0.62;8.53;6.13;;;28.20;31.40;;;;;;2268220;61;20411;-66
2023/10/03 04:13:29;0.00;0.00;0.62;0.00;0.00;0.62;9.70;6.80;;;28.20;31.40;;;;;;2268433;61;20363;-66
2023/10/03 04:16:14;0.00;0.00;0.62;0.00;0.00;0.62;8.20;6.10;;;28.20;31.40;;;;;;2268706;61;20395;-66
2023/10/03 04:18:59;0.00;0.00;0.62;0.00;0.00;0.62;8.20;5.80;;;28.20;31.40;;;;;;2267925;61;20370;-66
2023/10/03 04:21:44;0.00;0.00;0.62;0.00;0.00;0.62;10.70;6.20;;;28.20;31.40;;;;;;2268438;61;20425;-69
2023/10/03 04:24:29;0.00;0.00;0.62;0.00;0.00;0.62;10.27;6.10;;;28.20;31.40;;;;;;2268329;61;21018;-66
2023/10/03 04:27:15;0.00;0.00;0.62;0.00;0.00;0.62;8.80;6.53;;;28.20;31.40;;;;;;2268487;61;20371;-66
2023/10/03 04:30:00;0.00;0.00;0.62;0.00;0.00;0.62;7.80;5.83;;;28.20;31.40;;;;;;2264811;61;20387;-66
2023/10/03 04:32:47;0.00;0.00;0.62;0.00;0.00;0.62;8.87;6.30;;;28.20;31.40;;;;;;2268302;61;20414;-66
2023/10/03 04:35:32;0.00;0.00;0.62;0.00;0.00;0.62;9.60;6.73;;;28.20;31.40;;;;;;2268301;61;20378;-65
2023/10/03 04:38:17;0.00;0.00;0.62;0.00;0.00;0.62;10.20;7.33;;;28.20;31.40;;;;;;2268221;61;20801;-66
2023/10/03 04:41:02;0.00;0.00;0.62;0.00;0.00;0.62;12.80;7.87;;;28.20;31.40;;;;;;2268294;61;20787;-66
2023/10/03 04:43:49;0.00;0.00;0.62;0.00;0.00;0.62;12.90;6.93;;;28.20;31.40;;;;;;2265324;61;20386;-66
2023/10/03 04:46:34;0.00;0.00;0.62;0.00;0.00;0.62;10.03;7.13;;;28.20;31.40;;;;;;2268544;61;20775;-66
2023/10/03 04:49:18;0.00;0.00;0.62;0.00;0.00;0.62;10.40;7.00;;;28.20;31.40;;;;;;2268169;61;20769;-66
2023/10/03 04:52:07;0.00;0.00;0.62;0.00;0.00;0.62;13.90;7.60;;;28.20;31.40;;;;;;2268312;61;20383;-69
2023/10/03 04:54:52;0.00;0.00;0.62;0.00;0.00;0.62;9.60;7.00;;;28.20;31.40;;;;;;2268357;61;20358;-65
2023/10/03 04:57:41;0.00;0.00;0.62;0.00;0.00;0.62;9.27;6.40;;;28.20;31.30;;;;;;2268468;61;20818;-65
2023/10/03 05:00:27;0.00;0.00;0.62;0.00;0.00;0.62;11.90;8.53;;;28.20;31.30;;;;;;2268588;61;20497;-66
2023/10/03 05:03:13;0.00;0.00;0.62;0.00;0.00;0.62;11.10;7.30;;;28.20;31.40;;;;;;2268262;61;20828;-65
2023/10/03 05:05:57;0.00;0.00;0.62;0.00;0.00;0.62;10.20;7.00;;;28.20;31.30;;;;;;2268708;61;20451;-66
2023/10/03 05:08:42;0.00;0.00;0.62;0.00;0.00;0.62;12.20;7.60;;;28.20;31.30;;;;;;2264659;61;20790;-66
2023/10/03 05:11:27;0.00;0.00;0.62;0.00;0.00;0.62;10.70;7.67;;;28.20;31.30;;;;;;2268378;61;20445;-66
2023/10/03 05:14:12;0.00;0.00;0.62;0.00;0.00;0.62;9.60;6.90;;;28.20;31.30;;;;;;2268695;61;20433;-65
2023/10/03 05:17:00;0.00;0.00;0.62;0.00;0.00;0.62;11.57;8.60;;;28.20;31.30;;;;;;2268379;61;20489;-66
2023/10/03 05:19:44;0.00;0.00;0.62;0.00;0.00;0.62;12.53;7.80;;;28.20;31.30;;;;;;2267996;61;20368;-65
2023/10/03 05:22:31;0.00;0.00;0.62;0.00;0.00;0.62;10.53;7.30;;;28.20;31.30;;;;;;2268427;61;20459;-65
2023/10/03 05:25:19;0.00;0.00;0.62;0.00;0.00;0.62;11.00;7.60;;;28.20;31.30;;;;;;2268240;61;20371;-65
2023/10/03 05:28:10;0.00;0.00;0.62;0.00;0.00;0.62;9.80;7.10;;;28.20;31.30;;;;;;2268081;61;20398;-66
2023/10/03 05:30:58;0.00;0.00;0.62;0.00;0.00;0.62;13.70;8.37;;;28.10;31.20;;;;;;2268216;61;20919;-66
2023/10/03 05:33:44;0.00;0.00;0.62;0.00;0.00;0.62;12.47;8.70;;;28.10;31.20;;;;;;2268448;61;20418;-66
2023/10/03 05:36:28;0.00;0.00;0.62;0.00;0.00;0.62;12.93;7.97;;;28.10;31.20;;;;;;2268305;61;20445;-66
2023/10/03 05:39:15;0.00;0.00;0.62;0.00;0.00;0.62;10.00;7.43;;;28.10;31.20;;;;;;2263406;61;20407;-68
2023/10/03 05:42:00;0.00;0.00;0.62;0.00;0.00;0.62;12.13;8.13;;;28.20;31.30;;;;;;2264029;61;20388;-67
2023/10/03 05:44:45;0.00;0.00;0.62;0.00;0.00;0.62;12.30;7.50;;;28.10;31.20;;;;;;2264405;61;20455;-66
2023/10/03 05:47:29;0.00;0.00;0.62;0.00;0.00;0.62;12.50;7.93;;;28.10;31.10;;;;;;2264004;61;20386;-66
2023/10/03 05:50:20;0.00;0.00;0.62;0.00;0.00;0.62;12.13;8.10;;;28.10;31.20;;;;;;2264125;61;20375;-69
2023/10/03 05:53:06;0.00;0.00;0.62;0.00;0.00;0.62;12.30;7.27;;;28.10;31.10;;;;;;2264215;61;20770;-65
2023/10/03 05:55:51;0.00;0.00;0.62;0.00;0.00;0.62;13.80;8.10;;;28.10;31.10;;;;;;2261095;61;20848;-65
2023/10/03 05:58:37;0.00;0.00;0.62;0.00;0.00;0.62;10.70;7.13;;;28.10;31.10;;;;;;2263983;61;20507;-66
2023/10/03 06:01:22;0.00;0.00;0.62;0.00;0.00;0.62;10.10;7.67;;;28.10;31.10;;;;;;2264030;61;20404;-66
2023/10/03 06:04:08;0.00;0.00;0.62;0.00;0.00;0.62;10.80;7.60;;;28.10;31.20;;;;;;2264312;61;20356;-66
2023/10/03 06:06:54;0.00;0.00;0.62;0.00;0.00;0.62;12.67;8.40;;;28.10;31.20;;;;;;2264429;61;20401;-67
2023/10/03 06:09:39;0.00;0.00;0.62;0.00;0.00;0.62;11.13;7.43;;;28.10;31.20;;;;;;2263469;61;20411;-67
2023/10/03 06:12:24;0.00;0.00;0.62;0.00;0.00;0.62;11.70;7.93;;;28.10;31.20;;;;;;2264223;61;20368;-67
2023/10/03 06:15:09;0.00;0.00;0.62;0.00;0.00;0.62;11.73;7.73;;;28.10;31.20;;;;;;2264202;61;20445;-66
2023/10/03 06:17:54;0.00;0.00;0.62;0.00;0.00;0.62;12.43;8.20;;;28.10;31.20;;;;;;2264073;61;20423;-65
2023/10/03 06:20:39;0.00;0.00;0.62;0.00;0.00;0.62;13.80;8.10;;;28.10;31.20;;;;;;2264303;61;20590;-65
2023/10/03 06:23:25;0.00;0.00;0.62;0.00;0.00;0.62;12.53;8.63;;;28.10;31.20;;;;;;2264043;61;20371;-68
2023/10/03 06:26:10;0.00;0.00;0.62;0.00;0.00;0.62;12.63;7.30;;;28.10;31.10;;;;;;2264293;61;20535;-69
2023/10/03 06:28:54;0.00;0.00;0.62;0.00;0.00;0.62;13.97;8.47;;;28.10;31.10;;;;;;2264172;61;20399;-66
2023/10/03 06:31:39;0.00;0.00;0.62;0.00;0.00;0.62;10.90;7.53;;;28.10;31.10;;;;;;2264054;61;20496;-65
2023/10/03 06:34:25;0.00;0.00;0.62;0.00;0.00;0.62;12.40;8.53;;;28.10;31.10;;;;;;2264213;61;20368;-64
2023/10/03 06:37:09;0.00;0.00;0.62;0.00;0.00;0.62;12.27;8.47;;;28.10;31.20;;;;;;2264120;61;20968;-66
2023/10/03 06:39:55;0.00;0.00;0.62;0.00;0.00;0.62;13.97;9.00;;;28.10;31.20;;;;;;2267197;61;20891;-66
2023/10/03 06:42:40;0.00;0.00;0.62;0.00;0.00;0.62;10.63;8.03;;;28.10;31.20;;;;;;2267973;61;20498;-69
2023/10/03 06:45:25;0.00;0.00;0.62;0.00;0.00;0.62;12.47;8.43;;;28.10;31.20;;;;;;2268006;61;20448;-66
2023/10/03 06:48:10;0.00;0.00;0.62;0.00;0.00;0.62;14.00;8.70;;;28.10;31.20;;;;;;2267712;61;20902;-65
2023/10/03 06:50:56;0.00;0.00;0.62;0.00;0.00;0.62;12.30;8.60;;;28.10;31.20;;;;;;2264861;61;20426;-64
2023/10/03 06:53:41;0.00;0.00;0.62;0.00;0.00;0.62;12.50;8.23;;;28.10;31.20;;;;;;2268622;61;20485;-68
2023/10/03 06:56:32;0.00;0.00;0.62;0.00;0.00;0.62;11.43;8.70;;;28.10;31.20;;;;;;2268953;61;20402;-65
2023/10/03 06:59:17;0.00;0.00;0.62;0.00;0.00;0.62;14.27;8.80;;;28.10;31.20;;;;;;2268523;61;20363;-65
2023/10/03 07:02:04;0.00;0.00;0.62;0.00;0.00;0.62;11.47;7.90;;;28.00;31.20;;;;;;2268896;61;20966;-64
2023/10/03 07:04:49;0.00;0.00;0.62;0.00;0.00;0.62;12.30;8.70;;;28.10;31.20;;;;;;2268843;61;20374;-65
2023/10/03 07:07:33;0.00;0.00;0.62;0.00;0.00;0.62;9.93;7.43;;;28.10;31.20;;;;;;2268691;61;20433;-67
2023/10/03 07:10:18;0.00;0.00;0.62;0.00;0.00;0.62;11.80;8.27;;;28.10;31.20;;;;;;2268514;61;20530;-66
2023/10/03 07:13:04;0.00;0.00;0.62;0.00;0.00;0.62;12.40;8.40;;;28.10;31.20;;;;;;2268663;61;20947;-66
2023/10/03 07:15:49;0.00;0.00;0.62;0.00;0.00;0.62;13.27;8.40;;;28.10;31.30;;;;;;2268627;61;20401;-66
2023/10/03 07:18:35;0.00;0.00;0.62;0.00;0.00;0.62;13.30;7.70;;;28.00;31.20;;;;;;2268418;61;20828;-67
2023/10/03 07:21:22;0.00;0.00;0.62;0.00;0.00;0.62;14.00;8.50;;;28.00;31.20;;;;;;2265435;61;20931;-66
2023/10/03 07:24:07;0.00;0.00;0.62;0.00;0.00;0.62;11.10;7.83;;;28.00;31.20;;;;;;2268848;61;20362;-66
2023/10/03 07:26:52;0.00;0.00;0.62;0.00;0.00;0.62;10.70;7.80;;;28.00;31.30;;;;;;2268757;61;20358;-65
2023/10/03 07:29:42;0.00;0.00;0.62;0.00;0.00;0.62;11.60;8.37;;;28.00;31.20;;;;;;2268311;61;20382;-65
2023/10/03 07:32:26;0.00;0.00;0.62;0.00;0.00;0.62;13.43;8.33;;;28.00;31.20;;;;;;2268654;61;20405;-66
2023/10/03 07:35:13;0.00;0.00;0.62;0.00;0.00;0.62;12.20;7.80;;;28.00;31.30;;;;;;2269165;61;20924;-66
2023/10/03 07:37:58;0.00;0.00;0.62;0.00;0.00;0.62;13.27;8.87;;;28.00;31.30;;;;;;2272304;61;20354;-66
2023/10/03 07:40:43;0.00;0.00;0.62;0.00;0.00;0.62;13.57;7.87;;;28.00;31.30;;;;;;2528960;53;20376;-66
2023/10/03 07:43:28;0.00;0.00;0.62;0.00;0.00;0.62;13.37;8.30;;;28.00;31.30;;;;;;2264588;61;20446;-66
2023/10/03 07:46:21;0.00;0.00;0.62;0.00;0.00;0.62;10.87;7.23;;;28.00;31.30;;;;;;2264521;61;20387;-66
2023/10/03 07:49:07;0.00;0.00;0.62;0.00;0.00;0.62;12.47;8.53;;;28.00;31.30;;;;;;2264293;61;20368;-66
2023/10/03 07:51:54;0.00;0.00;0.62;0.00;0.00;0.62;9.90;7.47;;;28.00;31.30;;;;;;2264473;61;20484;-66
2023/10/03 07:54:38;0.00;0.00;0.62;0.00;0.00;0.62;12.53;8.33;;;28.00;31.30;;;;;;2264481;61;20439;-67
2023/10/03 07:57:23;0.00;0.00;0.62;0.00;0.00;0.62;15.57;8.30;;;28.00;31.30;;;;;;2264697;61;20361;-66
2023/10/03 08:00:12;0.00;0.00;0.62;0.00;0.00;0.62;9.13;6.23;;;28.00;31.40;;;;;;2261025;61;20431;-65
2023/10/03 08:02:59;0.00;0.00;0.62;0.00;0.00;0.62;11.63;7.57;;;28.00;31.40;;;;;;2264598;61;20368;-68
2023/10/03 08:05:43;0.00;0.00;0.62;0.00;0.00;0.62;10.30;6.93;;;28.00;31.40;;;;;;2264470;61;20368;-66
2023/10/03 08:08:28;0.00;0.00;0.62;0.00;0.00;0.62;11.07;7.80;;;28.00;31.50;;;;;;2264403;61;20859;-66
2023/10/03 08:11:13;0.00;0.00;0.62;0.00;0.00;0.62;11.67;8.10;;;28.00;31.50;;;;;;2264429;61;20807;-66
2023/10/03 08:13:58;0.00;0.00;0.62;0.00;0.00;0.62;11.93;8.10;;;28.00;31.50;;;;;;2264479;61;20835;-66
2023/10/03 08:16:45;0.00;0.00;0.62;0.00;0.00;0.62;9.73;7.23;;;28.00;31.50;;;;;;2264480;61;20359;-66
2023/10/03 08:19:31;0.00;0.00;0.62;0.00;0.00;0.62;9.90;6.97;;;28.00;31.50;;;;;;2260990;61;20982;-66
2023/10/03 08:22:17;0.00;0.00;0.62;0.00;0.00;0.62;12.10;7.90;;;28.00;31.50;;;;;;2263894;61;20403;-66
2023/10/03 08:25:05;0.00;0.00;0.62;0.00;0.00;0.62;12.10;7.53;;;28.00;31.60;;;;;;2264643;61;20811;-66
2023/10/03 08:27:50;0.00;0.00;0.62;0.00;0.00;0.62;8.73;6.87;;;28.00;31.60;;;;;;2264262;61;20701;-66
2023/10/03 08:30:35;0.00;0.00;0.62;0.00;0.00;0.62;11.20;8.13;;;28.00;31.60;;;;;;2264447;61;20391;-66
2023/10/03 08:33:21;0.00;0.00;0.62;0.00;0.00;0.62;10.00;6.20;;;28.00;31.60;;;;;;2264245;61;20437;-65
2023/10/03 08:36:14;0.00;0.00;0.62;0.00;0.00;0.62;10.33;7.10;;;28.00;31.60;;;;;;2264337;61;20890;-66
2023/10/03 08:39:10;0.00;0.00;0.62;0.00;0.00;0.62;12.60;8.00;;;28.00;31.60;;;;;;2265980;61;20383;-66
2023/10/03 08:42:12;0.00;0.00;0.62;0.00;0.00;0.62;9.17;6.70;;;28.00;31.70;;;;;;2268448;61;20382;-66
2023/10/03 08:44:59;0.00;0.00;0.62;0.00;0.00;0.62;9.63;6.30;;;28.00;31.70;;;;;;2268466;61;20413;-71
2023/10/03 08:47:48;0.00;0.00;0.62;0.00;0.00;0.62;10.40;6.57;;;28.00;31.70;;;;;;2268440;61;20871;-67
2023/10/03 08:50:40;0.00;0.00;0.62;0.00;0.00;0.62;9.90;6.93;;;28.00;31.80;;;;;;2265097;61;20931;-66
2023/10/03 08:53:26;0.00;0.00;0.62;0.00;0.00;0.62;8.70;6.77;;;28.00;31.80;;;;;;2268512;61;20879;-66
2023/10/03 08:56:17;0.00;0.00;0.62;0.00;0.00;0.62;10.33;7.50;;;28.00;31.80;;;;;;2265192;61;20381;-67
2023/10/03 08:59:03;0.00;0.00;0.62;0.00;0.00;0.62;9.70;5.80;;;28.00;31.90;;;;;;2264835;61;20444;-64
2023/10/03 09:01:48;0.00;0.00;0.62;0.00;0.00;0.62;8.77;6.43;;;28.00;31.90;;;;;;2268358;61;20383;-64
2023/10/03 09:04:38;0.00;0.00;0.62;0.00;0.00;0.62;12.47;6.43;;;28.00;32.00;;;;;;2268467;61;20363;-66
2023/10/03 09:07:23;0.00;0.00;0.62;0.00;0.00;0.62;10.37;6.60;;;28.00;32.70;;;;;;2268196;61;20355;-65
2023/10/03 09:10:20;0.00;0.00;0.62;0.00;0.00;0.62;8.67;6.70;;;28.00;32.10;;;;;;2265083;61;20375;-65
2023/10/03 09:13:06;0.00;0.00;0.62;0.00;0.00;0.62;9.33;6.80;;;28.00;32.10;;;;;;2271327;61;20385;-66
2023/10/03 09:15:59;0.00;0.00;0.62;0.00;0.00;0.62;9.47;6.70;;;28.00;32.10;;;;;;2272408;60;20890;-65
2023/10/03 09:18:50;0.00;0.00;0.62;0.00;0.00;0.62;11.23;7.87;;;28.00;32.10;;;;;;2271964;61;20393;-66
2023/10/03 09:21:35;0.00;0.00;0.62;0.00;0.00;0.62;11.30;8.07;;;28.00;32.10;;;;;;2268948;61;20412;-67
2023/10/03 09:24:22;0.00;0.00;0.62;0.00;0.00;0.62;8.70;6.50;;;28.00;32.10;;;;;;2272245;61;20362;-65
2023/10/03 09:27:07;0.00;0.00;0.62;0.00;0.00;0.62;7.40;5.37;;;28.00;32.10;;;;;;2272381;61;20366;-66
2023/10/03 09:29:52;0.00;0.00;0.62;0.00;0.00;0.62;8.50;6.63;;;28.00;32.10;;;;;;2272002;61;20366;-66
2023/10/03 09:32:39;0.00;0.00;0.62;0.00;0.00;0.62;8.83;6.23;;;28.00;32.10;;;;;;2272475;61;20370;-66
2023/10/03 09:35:24;0.00;0.00;0.62;0.00;0.00;0.62;7.97;5.83;;;28.00;32.10;;;;;;2272301;61;20363;-66
2023/10/03 09:38:17;0.00;0.00;0.62;0.00;0.00;0.62;9.67;6.53;;;28.00;32.10;;;;;;2268493;61;20446;-65
2023/10/03 09:41:03;0.00;0.00;0.62;0.00;0.00;0.62;9.50;6.87;;;28.00;32.10;;;;;;2268223;61;20446;-67
2023/10/03 09:43:53;0.00;0.00;0.62;0.00;0.00;0.62;8.17;6.33;;;28.10;32.10;;;;;;2268130;61;20367;-65
2023/10/03 09:46:38;0.00;0.00;0.62;0.00;0.00;0.62;10.23;7.37;;;28.00;32.10;;;;;;2268272;61;20393;-69
2023/10/03 09:49:26;0.00;0.00;0.62;0.00;0.00;0.62;8.67;5.77;;;28.00;32.10;;;;;;2267974;61;20456;-65
2023/10/03 09:52:22;0.00;0.00;0.62;0.00;0.00;0.62;8.13;5.67;;;28.10;32.10;;;;;;2264851;61;20422;-66
2023/10/03 09:55:21;0.00;0.00;0.62;0.00;0.00;0.62;6.13;5.10;;;28.10;32.10;;;;;;2268578;61;20389;-65
2023/10/03 09:58:05;0.00;0.00;0.62;0.00;0.00;0.62;7.63;6.13;;;28.10;32.10;;;;;;2267703;61;20356;-64
2023/10/03 10:00:53;0.00;0.00;0.62;0.00;0.00;0.62;8.97;5.70;;;28.10;32.10;;;;;;2268319;61;20406;-64
2023/10/03 10:03:46;0.00;0.00;0.62;0.00;0.00;0.62;7.90;5.67;;;28.10;32.10;;;;;;2268347;61;20366;-64
2023/10/03 10:06:40;0.00;0.00;0.62;0.00;0.00;0.62;7.63;5.60;;;28.10;32.10;;;;;;2268396;61;20405;-64
2023/10/03 10:09:29;0.00;0.00;0.62;0.00;0.00;0.62;6.30;5.03;;;28.10;32.20;;;;;;2267938;61;20366;-66
2023/10/03 10:12:19;0.00;0.00;0.62;0.00;0.00;0.62;7.40;5.40;;;28.10;32.20;;;;;;2268102;61;20391;-65
2023/10/03 10:17:58;0.00;0.00;0.62;0.00;0.00;0.62;7.77;5.50;;;28.10;32.10;;;;;;2267974;61;20537;-66
2023/10/03 10:20:43;0.00;0.00;0.62;0.00;0.00;0.62;7.03;4.83;;;28.10;32.10;;;;;;2268058;61;20391;-66
2023/10/03 10:23:35;0.00;0.00;0.62;0.00;0.00;0.62;6.57;4.97;;;28.10;32.10;;;;;;2268239;61;20366;-65
2023/10/03 10:26:30;0.00;0.00;0.62;0.00;0.00;0.62;8.27;5.87;;;28.10;32.10;;;;;;2268349;61;20359;-66
2023/10/03 10:29:20;0.00;0.00;0.62;0.00;0.00;0.62;7.03;5.20;;;28.10;32.10;;;;;;2268294;61;20398;-66
2023/10/03 10:32:19;0.00;0.00;0.62;0.00;0.00;0.62;6.37;4.53;;;28.10;32.10;;;;;;2268816;61;20391;-66
2023/10/03 10:35:47;0.00;0.00;0.62;0.00;0.00;0.62;7.00;5.13;;;28.10;32.10;;;;;;2268827;61;20384;-68
2023/10/03 10:38:52;0.00;0.00;0.62;0.00;0.00;0.62;7.87;4.47;;;28.10;32.10;;;;;;2265229;61;20855;-64
2023/10/03 10:41:37;0.00;0.00;0.62;0.00;0.00;0.62;7.23;5.63;;;28.10;32.10;;;;;;2268994;61;20911;-70
2023/10/03 10:44:22;0.00;0.00;0.62;0.00;0.00;0.62;7.13;4.60;;;28.10;32.10;;;;;;2268814;61;20914;-66
2023/10/03 10:47:06;0.00;0.00;0.62;0.00;0.00;0.62;5.67;4.10;;;28.10;32.20;;;;;;2268869;61;20956;-68
2023/10/03 10:49:58;0.00;0.00;0.62;0.00;0.00;0.62;7.07;4.80;;;28.10;32.30;;;;;;2268390;61;20896;-65
2023/10/03 10:52:53;0.00;0.00;0.62;0.00;0.00;0.62;6.33;4.33;;;28.10;32.30;;;;;;2268754;61;20378;-67
2023/10/03 10:55:41;0.00;0.00;0.62;0.00;0.00;0.62;6.00;4.63;;;28.10;32.30;;;;;;2268734;61;20386;-66
2023/10/03 10:58:25;0.00;0.00;0.62;0.00;0.00;0.62;6.57;4.20;;;28.10;32.30;;;;;;2268651;61;20446;-68
2023/10/03 11:01:12;0.00;0.00;0.62;0.00;0.00;0.62;5.00;3.90;;;28.10;32.30;;;;;;2268588;61;20378;-66